sensor_id;sensor_type;location;lat;lon;timestamp;P1;durP1;ratioP1;P2;durP2;ratioP2
74100;SDS011;62462;52.530;21.682;2023-09-08T00:02:26;9.40;;;4.95;;
74100;SDS011;62462;52.530;21.682;2023-09-08T00:04:52;8.15;;;5.10;;
74100;SDS011;62462;52.530;21.682;2023-09-08T00:07:19;6.57;;;4.72;;
74100;SDS011;62462;52.530;21.682;2023-09-08T00:09:45;8.70;;;5.55;;
74100;SDS011;62462;52.530;21.682;2023-09-08T00:12:10;7.05;;;5.05;;
74100;SDS011;62462;52.530;21.682;2023-09-08T00:14:36;8.50;;;5.03;;
74100;SDS011;62462;52.530;21.682;2023-09-08T00:17:02;8.23;;;5.07;;
74100;SDS011;62462;52.530;21.682;2023-09-08T00:19:29;9.90;;;5.30;;
74100;SDS011;62462;52.530;21.682;2023-09-08T00:21:55;6.15;;;4.90;;
74100;SDS011;62462;52.530;21.682;2023-09-08T00:24:21;10.95;;;5.00;;
74100;SDS011;62462;52.530;21.682;2023-09-08T00:26:47;7.18;;;4.88;;
74100;SDS011;62462;52.530;21.682;2023-09-08T00:29:13;7.45;;;4.60;;
74100;SDS011;62462;52.530;21.682;2023-09-08T00:31:38;7.47;;;4.80;;
74100;SDS011;62462;52.530;21.682;2023-09-08T00:34:04;8.85;;;4.80;;
74100;SDS011;62462;52.530;21.682;2023-09-08T00:36:30;8.30;;;4.68;;
74100;SDS011;62462;52.530;21.682;2023-09-08T00:38:56;10.20;;;4.70;;
74100;SDS011;62462;52.530;21.682;2023-09-08T00:41:22;6.00;;;4.82;;
74100;SDS011;62462;52.530;21.682;2023-09-08T00:43:49;8.60;;;4.90;;
74100;SDS011;62462;52.530;21.682;2023-09-08T00:46:15;7.63;;;4.70;;
74100;SDS011;62462;52.530;21.682;2023-09-08T00:48:42;7.15;;;4.70;;
74100;SDS011;62462;52.530;21.682;2023-09-08T00:51:08;6.60;;;4.28;;
74100;SDS011;62462;52.530;21.682;2023-09-08T00:53:35;7.72;;;4.63;;
74100;SDS011;62462;52.530;21.682;2023-09-08T00:56:01;7.03;;;4.30;;
74100;SDS011;62462;52.530;21.682;2023-09-08T00:58:28;7.20;;;4.45;;
74100;SDS011;62462;52.530;21.682;2023-09-08T01:00:54;5.70;;;4.30;;
74100;SDS011;62462;52.530;21.682;2023-09-08T01:03:22;8.68;;;4.22;;
74100;SDS011;62462;52.530;21.682;2023-09-08T01:05:49;7.57;;;4.68;;
74100;SDS011;62462;52.530;21.682;2023-09-08T01:08:15;6.13;;;4.28;;
74100;SDS011;62462;52.530;21.682;2023-09-08T01:10:41;8.27;;;4.57;;
74100;SDS011;62462;52.530;21.682;2023-09-08T01:13:07;6.95;;;4.78;;
74100;SDS011;62462;52.530;21.682;2023-09-08T01:15:34;6.88;;;3.95;;
74100;SDS011;62462;52.530;21.682;2023-09-08T01:18:00;5.97;;;4.22;;
74100;SDS011;62462;52.530;21.682;2023-09-08T01:20:27;6.78;;;4.07;;
74100;SDS011;62462;52.530;21.682;2023-09-08T01:25:46;5.13;;;3.92;;
74100;SDS011;62462;52.530;21.682;2023-09-08T01:28:20;5.57;;;4.40;;
74100;SDS011;62462;52.530;21.682;2023-09-08T01:30:47;7.63;;;4.03;;
74100;SDS011;62462;52.530;21.682;2023-09-08T01:33:13;4.95;;;4.28;;
74100;SDS011;62462;52.530;21.682;2023-09-08T01:35:39;5.68;;;3.90;;
74100;SDS011;62462;52.530;21.682;2023-09-08T01:38:05;10.60;;;4.53;;
74100;SDS011;62462;52.530;21.682;2023-09-08T01:40:31;6.32;;;4.30;;
74100;SDS011;62462;52.530;21.682;2023-09-08T01:42:57;7.93;;;4.15;;
74100;SDS011;62462;52.530;21.682;2023-09-08T01:45:22;7.72;;;3.95;;
74100;SDS011;62462;52.530;21.682;2023-09-08T01:47:48;6.13;;;4.60;;
74100;SDS011;62462;52.530;21.682;2023-09-08T01:50:14;9.45;;;4.75;;
74100;SDS011;62462;52.530;21.682;2023-09-08T01:52:46;5.97;;;4.35;;
74100;SDS011;62462;52.530;21.682;2023-09-08T01:55:11;7.10;;;4.60;;
74100;SDS011;62462;52.530;21.682;2023-09-08T01:57:37;7.00;;;4.47;;
74100;SDS011;62462;52.530;21.682;2023-09-08T02:00:03;7.18;;;4.43;;
74100;SDS011;62462;52.530;21.682;2023-09-08T02:02:30;6.28;;;4.20;;
74100;SDS011;62462;52.530;21.682;2023-09-08T02:04:56;6.97;;;4.00;;
74100;SDS011;62462;52.530;21.682;2023-09-08T02:07:21;8.30;;;3.95;;
74100;SDS011;62462;52.530;21.682;2023-09-08T02:09:47;6.93;;;4.38;;
74100;SDS011;62462;52.530;21.682;2023-09-08T02:12:13;6.88;;;4.22;;
74100;SDS011;62462;52.530;21.682;2023-09-08T02:14:39;6.80;;;4.38;;
74100;SDS011;62462;52.530;21.682;2023-09-08T02:17:04;7.40;;;4.15;;
74100;SDS011;62462;52.530;21.682;2023-09-08T02:19:31;11.05;;;4.15;;
74100;SDS011;62462;52.530;21.682;2023-09-08T02:21:57;12.00;;;4.10;;
74100;SDS011;62462;52.530;21.682;2023-09-08T02:24:22;16.08;;;4.50;;
74100;SDS011;62462;52.530;21.682;2023-09-08T02:26:48;12.82;;;4.75;;
74100;SDS011;62462;52.530;21.682;2023-09-08T02:29:14;18.02;;;4.35;;
74100;SDS011;62462;52.530;21.682;2023-09-08T02:31:40;14.25;;;4.18;;
74100;SDS011;62462;52.530;21.682;2023-09-08T02:34:06;9.27;;;4.10;;
74100;SDS011;62462;52.530;21.682;2023-09-08T02:36:32;12.25;;;4.07;;
74100;SDS011;62462;52.530;21.682;2023-09-08T02:38:57;14.25;;;4.10;;
74100;SDS011;62462;52.530;21.682;2023-09-08T02:41:23;9.25;;;4.13;;
74100;SDS011;62462;52.530;21.682;2023-09-08T02:43:49;7.28;;;3.63;;
74100;SDS011;62462;52.530;21.682;2023-09-08T02:46:15;8.85;;;4.25;;
74100;SDS011;62462;52.530;21.682;2023-09-08T02:48:41;9.88;;;4.28;;
74100;SDS011;62462;52.530;21.682;2023-09-08T02:51:06;6.20;;;4.35;;
74100;SDS011;62462;52.530;21.682;2023-09-08T02:53:33;10.43;;;4.47;;
74100;SDS011;62462;52.530;21.682;2023-09-08T02:55:59;8.27;;;4.28;;
74100;SDS011;62462;52.530;21.682;2023-09-08T02:58:25;5.70;;;4.05;;
74100;SDS011;62462;52.530;21.682;2023-09-08T03:00:52;5.55;;;3.90;;
74100;SDS011;62462;52.530;21.682;2023-09-08T03:03:18;5.75;;;3.95;;
74100;SDS011;62462;52.530;21.682;2023-09-08T03:05:44;5.97;;;4.22;;
74100;SDS011;62462;52.530;21.682;2023-09-08T03:08:10;9.65;;;3.88;;
74100;SDS011;62462;52.530;21.682;2023-09-08T03:10:36;6.13;;;4.00;;
74100;SDS011;62462;52.530;21.682;2023-09-08T03:13:04;10.68;;;4.97;;
74100;SDS011;62462;52.530;21.682;2023-09-08T03:15:30;6.50;;;4.10;;
74100;SDS011;62462;52.530;21.682;2023-09-08T03:17:56;6.22;;;4.15;;
74100;SDS011;62462;52.530;21.682;2023-09-08T03:20:26;6.53;;;4.15;;
74100;SDS011;62462;52.530;21.682;2023-09-08T03:22:53;8.15;;;4.28;;
74100;SDS011;62462;52.530;21.682;2023-09-08T03:25:19;6.18;;;4.03;;
74100;SDS011;62462;52.530;21.682;2023-09-08T03:27:45;7.15;;;4.53;;
74100;SDS011;62462;52.530;21.682;2023-09-08T03:30:11;6.50;;;4.15;;
74100;SDS011;62462;52.530;21.682;2023-09-08T03:32:37;6.93;;;3.92;;
74100;SDS011;62462;52.530;21.682;2023-09-08T03:35:03;8.60;;;4.40;;
74100;SDS011;62462;52.530;21.682;2023-09-08T03:37:32;6.68;;;4.30;;
74100;SDS011;62462;52.530;21.682;2023-09-08T03:39:59;6.38;;;3.70;;
74100;SDS011;62462;52.530;21.682;2023-09-08T03:42:25;6.97;;;3.90;;
74100;SDS011;62462;52.530;21.682;2023-09-08T03:44:51;9.60;;;3.92;;
74100;SDS011;62462;52.530;21.682;2023-09-08T03:47:16;4.82;;;3.90;;
74100;SDS011;62462;52.530;21.682;2023-09-08T03:49:42;8.93;;;3.97;;
74100;SDS011;62462;52.530;21.682;2023-09-08T03:52:08;5.32;;;3.80;;
74100;SDS011;62462;52.530;21.682;2023-09-08T03:54:33;5.35;;;3.58;;
74100;SDS011;62462;52.530;21.682;2023-09-08T03:56:59;7.97;;;3.80;;
74100;SDS011;62462;52.530;21.682;2023-09-08T03:59:25;8.98;;;3.85;;
74100;SDS011;62462;52.530;21.682;2023-09-08T04:01:50;10.75;;;3.67;;
74100;SDS011;62462;52.530;21.682;2023-09-08T04:04:16;11.23;;;4.00;;
74100;SDS011;62462;52.530;21.682;2023-09-08T04:06:44;8.15;;;3.90;;
74100;SDS011;62462;52.530;21.682;2023-09-08T04:09:10;8.27;;;3.92;;
74100;SDS011;62462;52.530;21.682;2023-09-08T04:11:36;7.70;;;4.43;;
74100;SDS011;62462;52.530;21.682;2023-09-08T04:14:01;12.98;;;3.83;;
74100;SDS011;62462;52.530;21.682;2023-09-08T04:16:28;8.90;;;4.05;;
74100;SDS011;62462;52.530;21.682;2023-09-08T04:18:53;8.02;;;3.40;;
74100;SDS011;62462;52.530;21.682;2023-09-08T04:21:19;7.22;;;3.92;;
74100;SDS011;62462;52.530;21.682;2023-09-08T04:23:45;11.13;;;4.15;;
74100;SDS011;62462;52.530;21.682;2023-09-08T04:26:11;7.57;;;3.70;;
74100;SDS011;62462;52.530;21.682;2023-09-08T04:28:37;7.63;;;3.55;;
74100;SDS011;62462;52.530;21.682;2023-09-08T04:31:03;11.27;;;4.00;;
74100;SDS011;62462;52.530;21.682;2023-09-08T04:33:29;5.95;;;3.55;;
74100;SDS011;62462;52.530;21.682;2023-09-08T04:35:55;6.95;;;3.70;;
74100;SDS011;62462;52.530;21.682;2023-09-08T04:38:20;10.20;;;4.00;;
74100;SDS011;62462;52.530;21.682;2023-09-08T04:40:46;9.35;;;4.40;;
74100;SDS011;62462;52.530;21.682;2023-09-08T04:43:12;8.70;;;4.03;;
74100;SDS011;62462;52.530;21.682;2023-09-08T04:45:37;12.60;;;4.30;;
74100;SDS011;62462;52.530;21.682;2023-09-08T04:48:04;7.22;;;3.75;;
74100;SDS011;62462;52.530;21.682;2023-09-08T04:50:30;11.40;;;4.03;;
74100;SDS011;62462;52.530;21.682;2023-09-08T04:52:55;11.50;;;3.95;;
74100;SDS011;62462;52.530;21.682;2023-09-08T04:55:21;7.22;;;4.03;;
74100;SDS011;62462;52.530;21.682;2023-09-08T04:57:47;10.55;;;4.50;;
74100;SDS011;62462;52.530;21.682;2023-09-08T05:00:13;7.55;;;3.55;;
74100;SDS011;62462;52.530;21.682;2023-09-08T05:02:39;12.32;;;3.97;;
74100;SDS011;62462;52.530;21.682;2023-09-08T05:05:04;8.63;;;3.80;;
74100;SDS011;62462;52.530;21.682;2023-09-08T05:07:30;4.53;;;3.67;;
74100;SDS011;62462;52.530;21.682;2023-09-08T05:09:56;8.43;;;3.53;;
74100;SDS011;62462;52.530;21.682;2023-09-08T05:12:22;6.85;;;3.55;;
74100;SDS011;62462;52.530;21.682;2023-09-08T05:14:47;8.90;;;4.68;;
74100;SDS011;62462;52.530;21.682;2023-09-08T05:17:13;8.48;;;3.90;;
74100;SDS011;62462;52.530;21.682;2023-09-08T05:19:39;7.45;;;4.00;;
74100;SDS011;62462;52.530;21.682;2023-09-08T05:22:05;7.55;;;3.85;;
74100;SDS011;62462;52.530;21.682;2023-09-08T05:24:34;9.40;;;4.47;;
74100;SDS011;62462;52.530;21.682;2023-09-08T05:26:59;6.40;;;3.80;;
74100;SDS011;62462;52.530;21.682;2023-09-08T05:29:25;7.93;;;3.67;;
74100;SDS011;62462;52.530;21.682;2023-09-08T05:31:51;5.78;;;3.85;;
74100;SDS011;62462;52.530;21.682;2023-09-08T05:34:17;6.25;;;4.00;;
74100;SDS011;62462;52.530;21.682;2023-09-08T05:36:42;8.00;;;3.90;;
74100;SDS011;62462;52.530;21.682;2023-09-08T05:39:08;10.02;;;3.75;;
74100;SDS011;62462;52.530;21.682;2023-09-08T05:41:35;7.93;;;4.05;;
74100;SDS011;62462;52.530;21.682;2023-09-08T05:44:01;7.18;;;4.07;;
74100;SDS011;62462;52.530;21.682;2023-09-08T05:46:26;7.00;;;3.40;;
74100;SDS011;62462;52.530;21.682;2023-09-08T05:48:52;7.72;;;4.35;;
74100;SDS011;62462;52.530;21.682;2023-09-08T05:51:18;10.52;;;4.80;;
74100;SDS011;62462;52.530;21.682;2023-09-08T05:53:44;9.88;;;4.07;;
74100;SDS011;62462;52.530;21.682;2023-09-08T05:56:09;10.32;;;4.40;;
74100;SDS011;62462;52.530;21.682;2023-09-08T05:58:35;10.88;;;4.45;;
74100;SDS011;62462;52.530;21.682;2023-09-08T06:01:02;7.28;;;4.18;;
74100;SDS011;62462;52.530;21.682;2023-09-08T06:03:28;11.02;;;4.93;;
74100;SDS011;62462;52.530;21.682;2023-09-08T06:05:54;5.80;;;3.90;;
74100;SDS011;62462;52.530;21.682;2023-09-08T06:08:21;7.70;;;4.20;;
74100;SDS011;62462;52.530;21.682;2023-09-08T06:10:47;5.20;;;3.70;;
74100;SDS011;62462;52.530;21.682;2023-09-08T06:13:13;7.95;;;4.63;;
74100;SDS011;62462;52.530;21.682;2023-09-08T06:15:38;8.95;;;4.13;;
74100;SDS011;62462;52.530;21.682;2023-09-08T06:18:04;10.63;;;4.68;;
74100;SDS011;62462;52.530;21.682;2023-09-08T06:20:31;12.43;;;4.95;;
74100;SDS011;62462;52.530;21.682;2023-09-08T06:22:56;9.65;;;4.20;;
74100;SDS011;62462;52.530;21.682;2023-09-08T06:25:22;11.77;;;4.47;;
74100;SDS011;62462;52.530;21.682;2023-09-08T06:27:48;8.05;;;4.22;;
74100;SDS011;62462;52.530;21.682;2023-09-08T06:30:13;11.48;;;4.30;;
74100;SDS011;62462;52.530;21.682;2023-09-08T06:32:41;5.20;;;3.90;;
74100;SDS011;62462;52.530;21.682;2023-09-08T06:35:07;7.63;;;3.90;;
74100;SDS011;62462;52.530;21.682;2023-09-08T06:37:36;5.63;;;3.95;;
74100;SDS011;62462;52.530;21.682;2023-09-08T06:40:02;5.28;;;3.83;;
74100;SDS011;62462;52.530;21.682;2023-09-08T06:42:29;11.85;;;4.43;;
74100;SDS011;62462;52.530;21.682;2023-09-08T06:44:54;7.95;;;4.30;;
74100;SDS011;62462;52.530;21.682;2023-09-08T06:47:20;7.93;;;4.20;;
74100;SDS011;62462;52.530;21.682;2023-09-08T06:49:46;7.85;;;4.20;;
74100;SDS011;62462;52.530;21.682;2023-09-08T06:52:12;10.60;;;4.20;;
74100;SDS011;62462;52.530;21.682;2023-09-08T06:54:37;9.02;;;4.57;;
74100;SDS011;62462;52.530;21.682;2023-09-08T06:57:03;6.03;;;3.88;;
74100;SDS011;62462;52.530;21.682;2023-09-08T06:59:29;5.43;;;4.10;;
74100;SDS011;62462;52.530;21.682;2023-09-08T07:01:55;5.50;;;3.70;;
74100;SDS011;62462;52.530;21.682;2023-09-08T07:04:20;4.55;;;3.33;;
74100;SDS011;62462;52.530;21.682;2023-09-08T07:06:46;5.40;;;4.00;;
74100;SDS011;62462;52.530;21.682;2023-09-08T07:09:12;9.13;;;4.10;;
74100;SDS011;62462;52.530;21.682;2023-09-08T07:11:38;9.23;;;4.43;;
74100;SDS011;62462;52.530;21.682;2023-09-08T07:14:04;8.25;;;3.72;;
74100;SDS011;62462;52.530;21.682;2023-09-08T07:16:29;6.85;;;4.18;;
74100;SDS011;62462;52.530;21.682;2023-09-08T07:18:55;5.78;;;3.95;;
74100;SDS011;62462;52.530;21.682;2023-09-08T07:21:21;5.30;;;3.75;;
74100;SDS011;62462;52.530;21.682;2023-09-08T07:23:46;6.10;;;3.47;;
74100;SDS011;62462;52.530;21.682;2023-09-08T07:26:12;9.65;;;3.88;;
74100;SDS011;62462;52.530;21.682;2023-09-08T07:28:38;4.88;;;3.83;;
74100;SDS011;62462;52.530;21.682;2023-09-08T07:31:04;6.97;;;3.72;;
74100;SDS011;62462;52.530;21.682;2023-09-08T07:33:31;5.72;;;3.70;;
74100;SDS011;62462;52.530;21.682;2023-09-08T07:35:57;5.15;;;3.40;;
74100;SDS011;62462;52.530;21.682;2023-09-08T07:38:22;5.53;;;3.63;;
74100;SDS011;62462;52.530;21.682;2023-09-08T07:40:48;8.07;;;4.13;;
74100;SDS011;62462;52.530;21.682;2023-09-08T07:43:14;5.78;;;3.67;;
74100;SDS011;62462;52.530;21.682;2023-09-08T07:45:39;4.55;;;3.83;;
74100;SDS011;62462;52.530;21.682;2023-09-08T07:48:06;5.15;;;3.60;;
74100;SDS011;62462;52.530;21.682;2023-09-08T07:50:32;9.60;;;4.20;;
74100;SDS011;62462;52.530;21.682;2023-09-08T07:52:57;6.50;;;4.45;;
74100;SDS011;62462;52.530;21.682;2023-09-08T07:55:24;5.88;;;4.25;;
74100;SDS011;62462;52.530;21.682;2023-09-08T07:57:53;7.43;;;3.75;;
74100;SDS011;62462;52.530;21.682;2023-09-08T08:00:19;5.40;;;3.80;;
74100;SDS011;62462;52.530;21.682;2023-09-08T08:02:46;5.18;;;3.83;;
74100;SDS011;62462;52.530;21.682;2023-09-08T08:05:17;4.25;;;3.30;;
74100;SDS011;62462;52.530;21.682;2023-09-08T08:07:43;4.38;;;3.33;;
74100;SDS011;62462;52.530;21.682;2023-09-08T08:10:09;4.82;;;3.50;;
74100;SDS011;62462;52.530;21.682;2023-09-08T08:12:36;4.05;;;3.50;;
74100;SDS011;62462;52.530;21.682;2023-09-08T08:15:02;4.22;;;3.50;;
74100;SDS011;62462;52.530;21.682;2023-09-08T08:17:29;4.22;;;3.47;;
74100;SDS011;62462;52.530;21.682;2023-09-08T08:19:56;5.40;;;4.20;;
74100;SDS011;62462;52.530;21.682;2023-09-08T08:22:23;5.40;;;3.78;;
74100;SDS011;62462;52.530;21.682;2023-09-08T08:24:50;6.65;;;3.58;;
74100;SDS011;62462;52.530;21.682;2023-09-08T08:27:15;4.43;;;4.00;;
74100;SDS011;62462;52.530;21.682;2023-09-08T08:29:41;6.80;;;3.90;;
74100;SDS011;62462;52.530;21.682;2023-09-08T08:32:07;7.35;;;4.13;;
74100;SDS011;62462;52.530;21.682;2023-09-08T08:34:32;6.00;;;3.55;;
74100;SDS011;62462;52.530;21.682;2023-09-08T08:36:58;4.65;;;3.55;;
74100;SDS011;62462;52.530;21.682;2023-09-08T08:39:24;4.88;;;3.92;;
74100;SDS011;62462;52.530;21.682;2023-09-08T08:41:49;5.93;;;4.00;;
74100;SDS011;62462;52.530;21.682;2023-09-08T08:44:15;8.45;;;4.47;;
74100;SDS011;62462;52.530;21.682;2023-09-08T08:46:43;6.68;;;4.53;;
74100;SDS011;62462;52.530;21.682;2023-09-08T08:49:11;5.40;;;4.35;;
74100;SDS011;62462;52.530;21.682;2023-09-08T08:51:40;5.75;;;3.72;;
74100;SDS011;62462;52.530;21.682;2023-09-08T08:54:10;5.63;;;4.05;;
74100;SDS011;62462;52.530;21.682;2023-09-08T08:56:38;5.80;;;4.22;;
74100;SDS011;62462;52.530;21.682;2023-09-08T08:59:04;3.95;;;3.38;;
74100;SDS011;62462;52.530;21.682;2023-09-08T09:01:30;6.07;;;3.92;;
74100;SDS011;62462;52.530;21.682;2023-09-08T09:03:57;5.30;;;4.00;;
74100;SDS011;62462;52.530;21.682;2023-09-08T09:06:23;5.25;;;3.83;;
74100;SDS011;62462;52.530;21.682;2023-09-08T09:08:49;4.90;;;3.75;;
74100;SDS011;62462;52.530;21.682;2023-09-08T09:11:15;5.22;;;3.75;;
74100;SDS011;62462;52.530;21.682;2023-09-08T09:13:41;5.47;;;4.00;;
74100;SDS011;62462;52.530;21.682;2023-09-08T09:16:06;5.03;;;3.65;;
74100;SDS011;62462;52.530;21.682;2023-09-08T09:19:21;5.88;;;3.30;;
74100;SDS011;62462;52.530;21.682;2023-09-08T09:21:22;4.63;;;3.50;;
74100;SDS011;62462;52.530;21.682;2023-09-08T09:23:48;5.25;;;3.22;;
74100;SDS011;62462;52.530;21.682;2023-09-08T09:26:24;3.80;;;3.28;;
74100;SDS011;62462;52.530;21.682;2023-09-08T09:28:51;4.93;;;3.40;;
74100;SDS011;62462;52.530;21.682;2023-09-08T09:31:18;4.47;;;3.72;;
74100;SDS011;62462;52.530;21.682;2023-09-08T09:33:48;5.63;;;3.80;;
74100;SDS011;62462;52.530;21.682;2023-09-08T09:36:28;4.97;;;3.72;;
74100;SDS011;62462;52.530;21.682;2023-09-08T09:38:57;4.20;;;3.53;;
74100;SDS011;62462;52.530;21.682;2023-09-08T09:41:23;3.83;;;3.25;;
74100;SDS011;62462;52.530;21.682;2023-09-08T09:43:49;4.25;;;3.05;;
74100;SDS011;62462;52.530;21.682;2023-09-08T09:46:15;3.80;;;3.05;;
74100;SDS011;62462;52.530;21.682;2023-09-08T09:48:41;5.63;;;3.55;;
74100;SDS011;62462;52.530;21.682;2023-09-08T09:51:16;4.40;;;3.60;;
74100;SDS011;62462;52.530;21.682;2023-09-08T09:53:43;4.80;;;3.17;;
74100;SDS011;62462;52.530;21.682;2023-09-08T09:56:09;4.28;;;2.78;;
74100;SDS011;62462;52.530;21.682;2023-09-08T09:58:36;4.28;;;3.13;;
74100;SDS011;62462;52.530;21.682;2023-09-08T10:01:03;3.60;;;2.80;;
74100;SDS011;62462;52.530;21.682;2023-09-08T10:03:30;3.45;;;2.88;;
74100;SDS011;62462;52.530;21.682;2023-09-08T10:05:58;3.80;;;3.17;;
74100;SDS011;62462;52.530;21.682;2023-09-08T10:08:25;7.55;;;4.57;;
74100;SDS011;62462;52.530;21.682;2023-09-08T10:10:50;4.38;;;3.55;;
74100;SDS011;62462;52.530;21.682;2023-09-08T10:13:23;7.35;;;3.47;;
74100;SDS011;62462;52.530;21.682;2023-09-08T10:15:55;12.45;;;3.47;;
74100;SDS011;62462;52.530;21.682;2023-09-08T10:18:23;5.47;;;3.10;;
74100;SDS011;62462;52.530;21.682;2023-09-08T10:20:53;4.88;;;3.20;;
74100;SDS011;62462;52.530;21.682;2023-09-08T10:25:47;4.50;;;3.20;;
74100;SDS011;62462;52.530;21.682;2023-09-08T10:28:19;4.45;;;3.60;;
74100;SDS011;62462;52.530;21.682;2023-09-08T10:30:45;4.55;;;3.40;;
74100;SDS011;62462;52.530;21.682;2023-09-08T10:33:11;9.32;;;5.50;;
74100;SDS011;62462;52.530;21.682;2023-09-08T10:35:38;13.93;;;6.28;;
74100;SDS011;62462;52.530;21.682;2023-09-08T10:38:24;5.15;;;4.38;;
74100;SDS011;62462;52.530;21.682;2023-09-08T10:40:50;4.63;;;3.80;;
74100;SDS011;62462;52.530;21.682;2023-09-08T10:43:17;4.68;;;3.33;;
74100;SDS011;62462;52.530;21.682;2023-09-08T10:45:43;4.72;;;3.17;;
74100;SDS011;62462;52.530;21.682;2023-09-08T10:48:13;5.30;;;3.08;;
74100;SDS011;62462;52.530;21.682;2023-09-08T10:50:41;5.88;;;3.50;;
74100;SDS011;62462;52.530;21.682;2023-09-08T10:55:39;6.43;;;3.03;;
74100;SDS011;62462;52.530;21.682;2023-09-08T10:58:29;4.18;;;3.13;;
74100;SDS011;62462;52.530;21.682;2023-09-08T11:00:58;5.32;;;3.10;;
74100;SDS011;62462;52.530;21.682;2023-09-08T11:06:04;3.10;;;2.65;;
74100;SDS011;62462;52.530;21.682;2023-09-08T11:08:34;3.70;;;3.00;;
74100;SDS011;62462;52.530;21.682;2023-09-08T11:11:02;5.28;;;2.88;;
74100;SDS011;62462;52.530;21.682;2023-09-08T11:13:28;3.17;;;2.45;;
74100;SDS011;62462;52.530;21.682;2023-09-08T11:15:54;3.25;;;2.90;;
74100;SDS011;62462;52.530;21.682;2023-09-08T11:18:26;3.95;;;2.88;;
74100;SDS011;62462;52.530;21.682;2023-09-08T11:20:52;3.38;;;3.08;;
74100;SDS011;62462;52.530;21.682;2023-09-08T11:23:18;5.43;;;2.80;;
74100;SDS011;62462;52.530;21.682;2023-09-08T11:25:45;3.58;;;2.75;;
74100;SDS011;62462;52.530;21.682;2023-09-08T11:28:11;4.18;;;2.80;;
74100;SDS011;62462;52.530;21.682;2023-09-08T11:30:38;2.78;;;2.58;;
74100;SDS011;62462;52.530;21.682;2023-09-08T11:33:13;4.43;;;2.97;;
74100;SDS011;62462;52.530;21.682;2023-09-08T11:35:45;3.72;;;3.20;;
74100;SDS011;62462;52.530;21.682;2023-09-08T11:38:12;4.43;;;3.03;;
74100;SDS011;62462;52.530;21.682;2023-09-08T11:40:38;3.92;;;3.28;;
74100;SDS011;62462;52.530;21.682;2023-09-08T11:43:05;3.78;;;2.58;;
74100;SDS011;62462;52.530;21.682;2023-09-08T11:45:33;4.15;;;3.05;;
74100;SDS011;62462;52.530;21.682;2023-09-08T11:48:00;9.15;;;3.58;;
74100;SDS011;62462;52.530;21.682;2023-09-08T11:50:26;6.43;;;3.30;;
74100;SDS011;62462;52.530;21.682;2023-09-08T11:52:52;4.03;;;2.95;;
74100;SDS011;62462;52.530;21.682;2023-09-08T11:55:19;8.00;;;3.65;;
74100;SDS011;62462;52.530;21.682;2023-09-08T11:57:49;3.83;;;3.25;;
74100;SDS011;62462;52.530;21.682;2023-09-08T12:00:22;4.85;;;3.10;;
74100;SDS011;62462;52.530;21.682;2023-09-08T12:02:50;3.42;;;3.05;;
74100;SDS011;62462;52.530;21.682;2023-09-08T12:05:21;4.78;;;3.55;;
74100;SDS011;62462;52.530;21.682;2023-09-08T12:07:48;4.05;;;2.92;;
74100;SDS011;62462;52.530;21.682;2023-09-08T12:10:18;3.78;;;3.20;;
74100;SDS011;62462;52.530;21.682;2023-09-08T12:12:51;3.97;;;2.95;;
74100;SDS011;62462;52.530;21.682;2023-09-08T12:15:40;3.60;;;3.05;;
74100;SDS011;62462;52.530;21.682;2023-09-08T12:18:12;4.72;;;3.13;;
74100;SDS011;62462;52.530;21.682;2023-09-08T12:20:40;3.42;;;2.83;;
74100;SDS011;62462;52.530;21.682;2023-09-08T12:23:16;3.35;;;2.83;;
74100;SDS011;62462;52.530;21.682;2023-09-08T12:25:47;3.60;;;2.85;;
74100;SDS011;62462;52.530;21.682;2023-09-08T12:28:15;3.60;;;3.03;;
74100;SDS011;62462;52.530;21.682;2023-09-08T12:30:42;4.15;;;2.90;;
74100;SDS011;62462;52.530;21.682;2023-09-08T12:33:08;3.92;;;3.00;;
74100;SDS011;62462;52.530;21.682;2023-09-08T12:35:35;3.83;;;3.15;;
74100;SDS011;62462;52.530;21.682;2023-09-08T12:38:01;7.70;;;3.20;;
74100;SDS011;62462;52.530;21.682;2023-09-08T12:40:30;5.43;;;3.00;;
74100;SDS011;62462;52.530;21.682;2023-09-08T12:42:58;4.30;;;3.08;;
74100;SDS011;62462;52.530;21.682;2023-09-08T12:45:25;5.57;;;3.13;;
74100;SDS011;62462;52.530;21.682;2023-09-08T12:47:51;5.05;;;2.80;;
74100;SDS011;62462;52.530;21.682;2023-09-08T12:50:20;3.97;;;2.90;;
74100;SDS011;62462;52.530;21.682;2023-09-08T12:52:46;4.47;;;2.97;;
74100;SDS011;62462;52.530;21.682;2023-09-08T12:55:12;4.55;;;3.03;;
74100;SDS011;62462;52.530;21.682;2023-09-08T12:57:38;4.28;;;3.20;;
74100;SDS011;62462;52.530;21.682;2023-09-08T13:00:03;4.03;;;3.03;;
74100;SDS011;62462;52.530;21.682;2023-09-08T13:02:30;4.88;;;2.90;;
74100;SDS011;62462;52.530;21.682;2023-09-08T13:04:56;3.00;;;2.65;;
74100;SDS011;62462;52.530;21.682;2023-09-08T13:07:22;4.38;;;3.00;;
74100;SDS011;62462;52.530;21.682;2023-09-08T13:09:49;3.72;;;2.92;;
74100;SDS011;62462;52.530;21.682;2023-09-08T13:12:15;4.53;;;2.92;;
74100;SDS011;62462;52.530;21.682;2023-09-08T13:14:41;5.72;;;3.22;;
74100;SDS011;62462;52.530;21.682;2023-09-08T13:17:08;8.40;;;3.45;;
74100;SDS011;62462;52.530;21.682;2023-09-08T13:19:37;4.10;;;2.78;;
74100;SDS011;62462;52.530;21.682;2023-09-08T13:22:04;4.53;;;3.03;;
74100;SDS011;62462;52.530;21.682;2023-09-08T13:24:30;3.10;;;2.80;;
74100;SDS011;62462;52.530;21.682;2023-09-08T13:26:55;3.20;;;2.90;;
74100;SDS011;62462;52.530;21.682;2023-09-08T13:29:21;4.22;;;2.97;;
74100;SDS011;62462;52.530;21.682;2023-09-08T13:31:47;5.78;;;3.25;;
74100;SDS011;62462;52.530;21.682;2023-09-08T13:34:13;5.63;;;2.92;;
74100;SDS011;62462;52.530;21.682;2023-09-08T13:36:39;3.63;;;2.90;;
74100;SDS011;62462;52.530;21.682;2023-09-08T13:39:05;9.40;;;3.50;;
74100;SDS011;62462;52.530;21.682;2023-09-08T13:41:46;7.50;;;3.63;;
74100;SDS011;62462;52.530;21.682;2023-09-08T13:44:19;3.50;;;2.80;;
74100;SDS011;62462;52.530;21.682;2023-09-08T13:46:46;5.15;;;2.60;;
74100;SDS011;62462;52.530;21.682;2023-09-08T13:49:13;3.97;;;3.20;;
74100;SDS011;62462;52.530;21.682;2023-09-08T13:51:39;13.02;;;3.55;;
74100;SDS011;62462;52.530;21.682;2023-09-08T13:54:05;5.68;;;3.03;;
74100;SDS011;62462;52.530;21.682;2023-09-08T13:56:32;4.63;;;2.70;;
74100;SDS011;62462;52.530;21.682;2023-09-08T13:58:57;3.35;;;2.78;;
74100;SDS011;62462;52.530;21.682;2023-09-08T14:01:23;4.38;;;2.80;;
74100;SDS011;62462;52.530;21.682;2023-09-08T14:03:49;5.13;;;3.30;;
74100;SDS011;62462;52.530;21.682;2023-09-08T14:06:17;6.10;;;2.85;;
74100;SDS011;62462;52.530;21.682;2023-09-08T14:08:44;3.53;;;2.83;;
74100;SDS011;62462;52.530;21.682;2023-09-08T14:11:09;4.07;;;2.60;;
74100;SDS011;62462;52.530;21.682;2023-09-08T14:13:37;2.83;;;2.55;;
74100;SDS011;62462;52.530;21.682;2023-09-08T14:16:03;4.25;;;2.95;;
74100;SDS011;62462;52.530;21.682;2023-09-08T14:18:29;4.65;;;2.65;;
74100;SDS011;62462;52.530;21.682;2023-09-08T14:20:55;4.53;;;2.50;;
74100;SDS011;62462;52.530;21.682;2023-09-08T14:23:21;3.20;;;2.88;;
74100;SDS011;62462;52.530;21.682;2023-09-08T14:25:47;5.63;;;2.88;;
74100;SDS011;62462;52.530;21.682;2023-09-08T14:28:12;5.25;;;3.00;;
74100;SDS011;62462;52.530;21.682;2023-09-08T14:30:38;5.80;;;3.13;;
74100;SDS011;62462;52.530;21.682;2023-09-08T14:33:05;2.95;;;2.67;;
74100;SDS011;62462;52.530;21.682;2023-09-08T14:35:31;4.80;;;2.60;;
74100;SDS011;62462;52.530;21.682;2023-09-08T14:37:57;3.83;;;2.90;;
74100;SDS011;62462;52.530;21.682;2023-09-08T14:40:23;3.70;;;2.88;;
74100;SDS011;62462;52.530;21.682;2023-09-08T14:42:49;3.40;;;3.10;;